sensor_id;sensor_type;location;lat;lon;timestamp;temperature;humidity
14527;DHT22;7350;51.208;4.238;2023-03-01T00:00:05;15.50;99.90
14527;DHT22;7350;51.208;4.238;2023-03-01T00:02:33;15.50;99.90
14527;DHT22;7350;51.208;4.238;2023-03-01T00:05:02;15.50;99.90
14527;DHT22;7350;51.208;4.238;2023-03-01T00:07:29;15.50;99.90
14527;DHT22;7350;51.208;4.238;2023-03-01T00:09:56;15.50;99.90
14527;DHT22;7350;51.208;4.238;2023-03-01T00:12:23;15.40;99.90
14527;DHT22;7350;51.208;4.238;2023-03-01T00:14:50;15.40;99.90
14527;DHT22;7350;51.208;4.238;2023-03-01T00:17:17;15.40;99.90
14527;DHT22;7350;51.208;4.238;2023-03-01T00:19:44;15.40;99.90
14527;DHT22;7350;51.208;4.238;2023-03-01T00:22:12;15.40;99.90
14527;DHT22;7350;51.208;4.238;2023-03-01T00:24:39;15.40;99.90
14527;DHT22;7350;51.208;4.238;2023-03-01T00:27:06;15.40;99.90
14527;DHT22;7350;51.208;4.238;2023-03-01T00:29:33;15.30;99.90
14527;DHT22;7350;51.208;4.238;2023-03-01T00:32:00;15.30;99.90
14527;DHT22;7350;51.208;4.238;2023-03-01T00:34:27;15.30;99.90
14527;DHT22;7350;51.208;4.238;2023-03-01T00:36:54;15.30;99.90
14527;DHT22;7350;51.208;4.238;2023-03-01T00:39:28;15.30;99.90
14527;DHT22;7350;51.208;4.238;2023-03-01T00:41:55;15.30;99.90
14527;DHT22;7350;51.208;4.238;2023-03-01T00:44:22;15.30;99.90
14527;DHT22;7350;51.208;4.238;2023-03-01T00:46:49;15.30;99.90
14527;DHT22;7350;51.208;4.238;2023-03-01T00:49:16;15.30;99.90
14527;DHT22;7350;51.208;4.238;2023-03-01T00:51:43;15.20;99.90
14527;DHT22;7350;51.208;4.238;2023-03-01T00:54:10;15.20;99.90
14527;DHT22;7350;51.208;4.238;2023-03-01T00:56:39;15.20;99.90
14527;DHT22;7350;51.208;4.238;2023-03-01T00:59:05;15.20;99.90
14527;DHT22;7350;51.208;4.238;2023-03-01T01:01:32;15.20;99.90
14527;DHT22;7350;51.208;4.238;2023-03-01T01:04:01;15.20;99.90
14527;DHT22;7350;51.208;4.238;2023-03-01T01:06:30;15.20;99.90
14527;DHT22;7350;51.208;4.238;2023-03-01T01:08:58;15.20;99.90
14527;DHT22;7350;51.208;4.238;2023-03-01T01:11:27;15.20;99.90
14527;DHT22;7350;51.208;4.238;2023-03-01T01:13:57;15.20;99.90
14527;DHT22;7350;51.208;4.238;2023-03-01T01:16:26;15.20;99.90
14527;DHT22;7350;51.208;4.238;2023-03-01T01:18:53;15.20;99.90
14527;DHT22;7350;51.208;4.238;2023-03-01T01:21:22;15.10;99.90
14527;DHT22;7350;51.208;4.238;2023-03-01T01:23:50;15.20;99.90
14527;DHT22;7350;51.208;4.238;2023-03-01T01:26:19;15.20;99.90
14527;DHT22;7350;51.208;4.238;2023-03-01T01:28:49;15.10;99.90
14527;DHT22;7350;51.208;4.238;2023-03-01T01:31:18;15.10;99.90
14527;DHT22;7350;51.208;4.238;2023-03-01T01:33:46;15.10;99.90
14527;DHT22;7350;51.208;4.238;2023-03-01T01:36:13;15.10;99.90
14527;DHT22;7350;51.208;4.238;2023-03-01T01:38:40;15.10;99.90
14527;DHT22;7350;51.208;4.238;2023-03-01T01:41:08;15.10;99.90
14527;DHT22;7350;51.208;4.238;2023-03-01T01:43:39;15.10;99.90
14527;DHT22;7350;51.208;4.238;2023-03-01T01:46:14;15.10;99.90
14527;DHT22;7350;51.208;4.238;2023-03-01T01:48:46;15.10;99.90
14527;DHT22;7350;51.208;4.238;2023-03-01T01:51:18;15.10;99.90
14527;DHT22;7350;51.208;4.238;2023-03-01T01:53:51;15.10;99.90
14527;DHT22;7350;51.208;4.238;2023-03-01T01:56:20;15.00;99.90
14527;DHT22;7350;51.208;4.238;2023-03-01T01:58:48;15.00;99.90
14527;DHT22;7350;51.208;4.238;2023-03-01T02:01:15;15.10;99.90
14527;DHT22;7350;51.208;4.238;2023-03-01T02:03:44;15.00;99.90
14527;DHT22;7350;51.208;4.238;2023-03-01T02:06:18;15.00;99.90
14527;DHT22;7350;51.208;4.238;2023-03-01T02:08:47;15.00;99.90
14527;DHT22;7350;51.208;4.238;2023-03-01T02:11:15;15.00;99.90
14527;DHT22;7350;51.208;4.238;2023-03-01T02:13:44;15.00;99.90
14527;DHT22;7350;51.208;4.238;2023-03-01T02:16:13;15.00;99.90
14527;DHT22;7350;51.208;4.238;2023-03-01T02:18:41;15.00;99.90
14527;DHT22;7350;51.208;4.238;2023-03-01T02:21:26;15.00;99.90
14527;DHT22;7350;51.208;4.238;2023-03-01T02:23:58;15.00;99.90
14527;DHT22;7350;51.208;4.238;2023-03-01T02:26:34;15.00;99.90
14527;DHT22;7350;51.208;4.238;2023-03-01T02:29:04;15.00;99.90
14527;DHT22;7350;51.208;4.238;2023-03-01T02:31:32;15.00;99.90
14527;DHT22;7350;51.208;4.238;2023-03-01T02:34:10;14.90;99.90
14527;DHT22;7350;51.208;4.238;2023-03-01T02:36:40;14.90;99.90
14527;DHT22;7350;51.208;4.238;2023-03-01T02:39:14;14.90;99.90
14527;DHT22;7350;51.208;4.238;2023-03-01T02:41:47;14.90;99.90
14527;DHT22;7350;51.208;4.238;2023-03-01T02:44:16;14.90;99.90
14527;DHT22;7350;51.208;4.238;2023-03-01T02:46:44;14.80;99.90
14527;DHT22;7350;51.208;4.238;2023-03-01T02:49:22;14.80;99.90
14527;DHT22;7350;51.208;4.238;2023-03-01T02:52:04;14.80;99.90
14527;DHT22;7350;51.208;4.238;2023-03-01T02:54:38;14.80;99.90
14527;DHT22;7350;51.208;4.238;2023-03-01T02:57:06;14.80;99.90
14527;DHT22;7350;51.208;4.238;2023-03-01T02:59:36;14.80;99.90
14527;DHT22;7350;51.208;4.238;2023-03-01T03:02:06;14.80;99.90
14527;DHT22;7350;51.208;4.238;2023-03-01T03:04:33;14.80;99.90
14527;DHT22;7350;51.208;4.238;2023-03-01T03:07:00;14.80;99.90
14527;DHT22;7350;51.208;4.238;2023-03-01T03:09:27;14.80;99.90
14527;DHT22;7350;51.208;4.238;2023-03-01T03:11:54;14.80;99.90
14527;DHT22;7350;51.208;4.238;2023-03-01T03:14:21;14.80;99.90
14527;DHT22;7350;51.208;4.238;2023-03-01T03:16:50;14.80;99.90
14527;DHT22;7350;51.208;4.238;2023-03-01T03:19:18;14.70;99.90
14527;DHT22;7350;51.208;4.238;2023-03-01T03:21:46;14.70;99.90
14527;DHT22;7350;51.208;4.238;2023-03-01T03:24:13;14.70;99.90
14527;DHT22;7350;51.208;4.238;2023-03-01T03:26:39;14.70;99.90
14527;DHT22;7350;51.208;4.238;2023-03-01T03:29:06;14.70;99.90
14527;DHT22;7350;51.208;4.238;2023-03-01T03:31:34;14.70;99.90
14527;DHT22;7350;51.208;4.238;2023-03-01T03:34:02;14.70;99.90
14527;DHT22;7350;51.208;4.238;2023-03-01T03:36:29;14.60;99.90
14527;DHT22;7350;51.208;4.238;2023-03-01T03:38:56;14.60;99.90
14527;DHT22;7350;51.208;4.238;2023-03-01T03:41:23;14.60;99.90
14527;DHT22;7350;51.208;4.238;2023-03-01T03:43:50;14.60;99.90
14527;DHT22;7350;51.208;4.238;2023-03-01T03:46:17;14.60;99.90
14527;DHT22;7350;51.208;4.238;2023-03-01T03:48:45;14.60;99.90
14527;DHT22;7350;51.208;4.238;2023-03-01T03:51:15;14.60;99.90
14527;DHT22;7350;51.208;4.238;2023-03-01T03:53:43;14.60;99.90
14527;DHT22;7350;51.208;4.238;2023-03-01T03:56:11;14.60;99.90
14527;DHT22;7350;51.208;4.238;2023-03-01T03:58:38;14.70;99.90
14527;DHT22;7350;51.208;4.238;2023-03-01T04:01:05;14.70;99.90
14527;DHT22;7350;51.208;4.238;2023-03-01T04:03:33;14.70;99.90
14527;DHT22;7350;51.208;4.238;2023-03-01T04:06:01;14.70;99.90
14527;DHT22;7350;51.208;4.238;2023-03-01T04:08:31;14.80;99.90
14527;DHT22;7350;51.208;4.238;2023-03-01T04:10:59;14.80;99.90
14527;DHT22;7350;51.208;4.238;2023-03-01T04:13:47;14.90;99.90
14527;DHT22;7350;51.208;4.238;2023-03-01T04:16:14;14.90;99.90
14527;DHT22;7350;51.208;4.238;2023-03-01T04:18:41;14.90;99.90
14527;DHT22;7350;51.208;4.238;2023-03-01T04:21:08;15.00;99.90
14527;DHT22;7350;51.208;4.238;2023-03-01T04:23:38;15.00;99.90
14527;DHT22;7350;51.208;4.238;2023-03-01T04:26:07;15.10;99.90
14527;DHT22;7350;51.208;4.238;2023-03-01T04:28:35;15.10;99.90
14527;DHT22;7350;51.208;4.238;2023-03-01T04:31:04;15.10;99.90
14527;DHT22;7350;51.208;4.238;2023-03-01T04:33:38;15.20;99.90
14527;DHT22;7350;51.208;4.238;2023-03-01T04:36:06;15.10;99.90
14527;DHT22;7350;51.208;4.238;2023-03-01T04:38:34;15.20;99.90
14527;DHT22;7350;51.208;4.238;2023-03-01T04:41:05;15.20;99.90
14527;DHT22;7350;51.208;4.238;2023-03-01T04:43:32;15.20;99.90
14527;DHT22;7350;51.208;4.238;2023-03-01T04:46:03;15.30;99.90
14527;DHT22;7350;51.208;4.238;2023-03-01T04:48:32;15.30;99.90
14527;DHT22;7350;51.208;4.238;2023-03-01T04:50:59;15.30;99.90
14527;DHT22;7350;51.208;4.238;2023-03-01T04:53:27;15.40;99.90
14527;DHT22;7350;51.208;4.238;2023-03-01T04:55:54;15.40;99.90
14527;DHT22;7350;51.208;4.238;2023-03-01T04:58:23;15.60;99.90
14527;DHT22;7350;51.208;4.238;2023-03-01T05:00:51;15.70;99.90
14527;DHT22;7350;51.208;4.238;2023-03-01T05:03:18;15.80;99.90
14527;DHT22;7350;51.208;4.238;2023-03-01T05:05:46;15.90;99.90
14527;DHT22;7350;51.208;4.238;2023-03-01T05:08:14;16.00;99.90
14527;DHT22;7350;51.208;4.238;2023-03-01T05:10:45;16.20;99.90
14527;DHT22;7350;51.208;4.238;2023-03-01T05:13:13;16.20;99.90
14527;DHT22;7350;51.208;4.238;2023-03-01T05:15:42;16.30;99.90
14527;DHT22;7350;51.208;4.238;2023-03-01T05:18:09;16.40;99.90
14527;DHT22;7350;51.208;4.238;2023-03-01T05:20:37;16.50;99.90
14527;DHT22;7350;51.208;4.238;2023-03-01T05:23:04;16.50;99.90
14527;DHT22;7350;51.208;4.238;2023-03-01T05:25:33;16.60;99.90
14527;DHT22;7350;51.208;4.238;2023-03-01T05:28:00;16.50;99.90
14527;DHT22;7350;51.208;4.238;2023-03-01T05:30:30;16.50;99.90
14527;DHT22;7350;51.208;4.238;2023-03-01T05:32:59;16.60;99.90
14527;DHT22;7350;51.208;4.238;2023-03-01T05:35:27;16.40;99.90
14527;DHT22;7350;51.208;4.238;2023-03-01T05:37:55;16.40;99.90
14527;DHT22;7350;51.208;4.238;2023-03-01T05:40:23;16.40;99.90
14527;DHT22;7350;51.208;4.238;2023-03-01T05:42:52;16.40;99.90
14527;DHT22;7350;51.208;4.238;2023-03-01T05:45:20;16.30;99.90
14527;DHT22;7350;51.208;4.238;2023-03-01T05:47:49;16.30;99.90
14527;DHT22;7350;51.208;4.238;2023-03-01T05:50:19;16.30;99.90
14527;DHT22;7350;51.208;4.238;2023-03-01T05:52:47;16.30;99.90
14527;DHT22;7350;51.208;4.238;2023-03-01T05:55:15;16.40;99.90
14527;DHT22;7350;51.208;4.238;2023-03-01T05:57:42;16.40;99.90
14527;DHT22;7350;51.208;4.238;2023-03-01T06:00:10;16.30;99.90
14527;DHT22;7350;51.208;4.238;2023-03-01T06:02:37;16.30;99.90
14527;DHT22;7350;51.208;4.238;2023-03-01T06:05:05;16.30;99.90
14527;DHT22;7350;51.208;4.238;2023-03-01T06:07:34;16.30;99.90
14527;DHT22;7350;51.208;4.238;2023-03-01T06:10:01;16.20;99.90
14527;DHT22;7350;51.208;4.238;2023-03-01T06:12:30;16.20;99.90
14527;DHT22;7350;51.208;4.238;2023-03-01T06:14:58;16.20;99.90
14527;DHT22;7350;51.208;4.238;2023-03-01T06:17:25;16.20;99.90
14527;DHT22;7350;51.208;4.238;2023-03-01T06:19:52;16.20;99.90
14527;DHT22;7350;51.208;4.238;2023-03-01T06:22:19;16.10;99.90
14527;DHT22;7350;51.208;4.238;2023-03-01T06:24:48;16.10;99.90
14527;DHT22;7350;51.208;4.238;2023-03-01T06:27:15;16.10;99.90
14527;DHT22;7350;51.208;4.238;2023-03-01T06:29:42;16.00;99.90
14527;DHT22;7350;51.208;4.238;2023-03-01T06:32:10;16.00;99.90
14527;DHT22;7350;51.208;4.238;2023-03-01T06:34:37;16.00;99.90
14527;DHT22;7350;51.208;4.238;2023-03-01T06:37:04;16.00;99.90
14527;DHT22;7350;51.208;4.238;2023-03-01T06:39:31;15.90;99.90
14527;DHT22;7350;51.208;4.238;2023-03-01T06:42:00;15.90;99.90
14527;DHT22;7350;51.208;4.238;2023-03-01T06:44:27;15.80;99.90
14527;DHT22;7350;51.208;4.238;2023-03-01T06:46:54;15.80;99.90
14527;DHT22;7350;51.208;4.238;2023-03-01T06:49:21;15.80;99.90
14527;DHT22;7350;51.208;4.238;2023-03-01T06:51:48;15.80;99.90
14527;DHT22;7350;51.208;4.238;2023-03-01T06:54:15;15.70;99.90
14527;DHT22;7350;51.208;4.238;2023-03-01T06:56:43;15.70;99.90
14527;DHT22;7350;51.208;4.238;2023-03-01T06:59:15;15.70;99.90
14527;DHT22;7350;51.208;4.238;2023-03-01T07:01:42;15.60;99.90
14527;DHT22;7350;51.208;4.238;2023-03-01T07:04:09;15.60;99.90
14527;DHT22;7350;51.208;4.238;2023-03-01T07:06:36;15.60;99.90
14527;DHT22;7350;51.208;4.238;2023-03-01T07:09:03;15.50;99.90
14527;DHT22;7350;51.208;4.238;2023-03-01T07:11:30;15.50;99.90
14527;DHT22;7350;51.208;4.238;2023-03-01T07:13:57;15.50;99.90
14527;DHT22;7350;51.208;4.238;2023-03-01T07:16:27;15.50;99.90
14527;DHT22;7350;51.208;4.238;2023-03-01T07:18:54;15.50;99.90
14527;DHT22;7350;51.208;4.238;2023-03-01T07:21:21;15.50;99.90
14527;DHT22;7350;51.208;4.238;2023-03-01T07:23:48;15.40;99.90
14527;DHT22;7350;51.208;4.238;2023-03-01T07:26:15;15.40;99.90
14527;DHT22;7350;51.208;4.238;2023-03-01T07:28:42;15.40;99.90
14527;DHT22;7350;51.208;4.238;2023-03-01T07:31:09;15.30;99.90
14527;DHT22;7350;51.208;4.238;2023-03-01T07:33:37;15.30;99.90
14527;DHT22;7350;51.208;4.238;2023-03-01T07:36:05;15.30;99.90
14527;DHT22;7350;51.208;4.238;2023-03-01T07:38:33;15.30;99.90
14527;DHT22;7350;51.208;4.238;2023-03-01T07:41:01;15.30;99.90
14527;DHT22;7350;51.208;4.238;2023-03-01T07:43:28;15.30;99.90
14527;DHT22;7350;51.208;4.238;2023-03-01T07:45:58;15.30;99.90
14527;DHT22;7350;51.208;4.238;2023-03-01T07:48:25;15.20;99.90
14527;DHT22;7350;51.208;4.238;2023-03-01T07:50:54;15.20;99.90
14527;DHT22;7350;51.208;4.238;2023-03-01T07:53:21;15.30;99.90
14527;DHT22;7350;51.208;4.238;2023-03-01T07:55:48;15.30;99.90
14527;DHT22;7350;51.208;4.238;2023-03-01T07:58:15;15.30;99.90
14527;DHT22;7350;51.208;4.238;2023-03-01T08:00:42;15.30;99.90
14527;DHT22;7350;51.208;4.238;2023-03-01T08:03:09;15.20;99.90
14527;DHT22;7350;51.208;4.238;2023-03-01T08:05:36;15.20;99.90
14527;DHT22;7350;51.208;4.238;2023-03-01T08:08:04;15.20;99.90
14527;DHT22;7350;51.208;4.238;2023-03-01T08:10:31;15.20;99.90
14527;DHT22;7350;51.208;4.238;2023-03-01T08:12:58;15.20;99.90
14527;DHT22;7350;51.208;4.238;2023-03-01T08:15:25;15.20;99.90
14527;DHT22;7350;51.208;4.238;2023-03-01T08:17:52;15.20;99.90
14527;DHT22;7350;51.208;4.238;2023-03-01T08:20:19;15.10;99.90
14527;DHT22;7350;51.208;4.238;2023-03-01T08:22:46;15.10;99.90
14527;DHT22;7350;51.208;4.238;2023-03-01T08:25:14;15.10;99.90
14527;DHT22;7350;51.208;4.238;2023-03-01T08:27:41;15.10;99.90
14527;DHT22;7350;51.208;4.238;2023-03-01T08:30:10;15.10;99.90
14527;DHT22;7350;51.208;4.238;2023-03-01T08:32:38;15.10;99.90
14527;DHT22;7350;51.208;4.238;2023-03-01T08:35:06;15.10;99.90
14527;DHT22;7350;51.208;4.238;2023-03-01T08:37:33;15.10;99.90
14527;DHT22;7350;51.208;4.238;2023-03-01T08:40:00;15.10;99.90
14527;DHT22;7350;51.208;4.238;2023-03-01T08:42:30;15.10;99.90
14527;DHT22;7350;51.208;4.238;2023-03-01T08:44:57;15.10;99.90
14527;DHT22;7350;51.208;4.238;2023-03-01T08:47:24;15.00;99.90
14527;DHT22;7350;51.208;4.238;2023-03-01T08:49:51;15.00;99.90
14527;DHT22;7350;51.208;4.238;2023-03-01T08:52:19;15.00;99.90
14527;DHT22;7350;51.208;4.238;2023-03-01T08:54:47;14.90;99.90
14527;DHT22;7350;51.208;4.238;2023-03-01T08:57:14;14.90;99.90
14527;DHT22;7350;51.208;4.238;2023-03-01T08:59:42;15.00;99.90
14527;DHT22;7350;51.208;4.238;2023-03-01T09:02:12;15.00;99.90
14527;DHT22;7350;51.208;4.238;2023-03-01T09:04:40;15.00;99.90
14527;DHT22;7350;51.208;4.238;2023-03-01T09:07:07;14.90;99.90
14527;DHT22;7350;51.208;4.238;2023-03-01T09:09:35;14.90;99.90
14527;DHT22;7350;51.208;4.238;2023-03-01T09:12:02;14.90;99.90
14527;DHT22;7350;51.208;4.238;2023-03-01T09:14:29;14.90;99.90
14527;DHT22;7350;51.208;4.238;2023-03-01T09:16:58;14.90;99.90
14527;DHT22;7350;51.208;4.238;2023-03-01T09:19:28;14.90;99.90
14527;DHT22;7350;51.208;4.238;2023-03-01T09:21:55;14.90;99.90
14527;DHT22;7350;51.208;4.238;2023-03-01T09:24:24;14.90;99.90
14527;DHT22;7350;51.208;4.238;2023-03-01T09:26:53;14.90;99.90
14527;DHT22;7350;51.208;4.238;2023-03-01T09:29:20;14.90;99.90
14527;DHT22;7350;51.208;4.238;2023-03-01T09:31:47;14.90;99.90
14527;DHT22;7350;51.208;4.238;2023-03-01T09:34:16;14.90;99.90
14527;DHT22;7350;51.208;4.238;2023-03-01T09:36:48;14.90;99.90
14527;DHT22;7350;51.208;4.238;2023-03-01T09:39:15;14.90;99.90
14527;DHT22;7350;51.208;4.238;2023-03-01T09:41:46;14.90;99.90
14527;DHT22;7350;51.208;4.238;2023-03-01T09:44:29;14.90;99.90
14527;DHT22;7350;51.208;4.238;2023-03-01T09:46:57;14.90;99.90
14527;DHT22;7350;51.208;4.238;2023-03-01T09:49:29;15.00;99.90
14527;DHT22;7350;51.208;4.238;2023-03-01T09:52:00;15.10;99.90
14527;DHT22;7350;51.208;4.238;2023-03-01T09:54:30;15.10;99.90
14527;DHT22;7350;51.208;4.238;2023-03-01T09:57:06;15.10;99.90
14527;DHT22;7350;51.208;4.238;2023-03-01T09:59:45;15.20;99.90
14527;DHT22;7350;51.208;4.238;2023-03-01T10:02:27;15.30;99.90
14527;DHT22;7350;51.208;4.238;2023-03-01T10:05:05;15.30;99.90
14527;DHT22;7350;51.208;4.238;2023-03-01T10:07:42;15.40;99.90
14527;DHT22;7350;51.208;4.238;2023-03-01T10:10:20;15.40;99.90
14527;DHT22;7350;51.208;4.238;2023-03-01T10:12:49;15.50;99.90
14527;DHT22;7350;51.208;4.238;2023-03-01T10:15:18;15.50;99.90
14527;DHT22;7350;51.208;4.238;2023-03-01T10:17:51;15.60;99.90
14527;DHT22;7350;51.208;4.238;2023-03-01T10:20:23;15.60;99.90
14527;DHT22;7350;51.208;4.238;2023-03-01T10:22:51;15.70;99.90
14527;DHT22;7350;51.208;4.238;2023-03-01T10:25:29;15.70;99.90
14527;DHT22;7350;51.208;4.238;2023-03-01T10:28:02;15.80;99.90
14527;DHT22;7350;51.208;4.238;2023-03-01T10:30:35;15.80;99.90
14527;DHT22;7350;51.208;4.238;2023-03-01T10:33:13;15.90;99.90
14527;DHT22;7350;51.208;4.238;2023-03-01T10:35:43;15.90;99.90
14527;DHT22;7350;51.208;4.238;2023-03-01T10:38:11;15.90;99.90
14527;DHT22;7350;51.208;4.238;2023-03-01T10:40:51;16.00;99.90
14527;DHT22;7350;51.208;4.238;2023-03-01T10:43:19;16.00;99.90
14527;DHT22;7350;51.208;4.238;2023-03-01T10:45:47;16.10;99.90
14527;DHT22;7350;51.208;4.238;2023-03-01T10:48:16;16.10;99.90
14527;DHT22;7350;51.208;4.238;2023-03-01T10:50:46;16.10;99.90
14527;DHT22;7350;51.208;4.238;2023-03-01T10:53:27;16.10;99.90
14527;DHT22;7350;51.208;4.238;2023-03-01T10:56:00;16.10;99.90
14527;DHT22;7350;51.208;4.238;2023-03-01T10:58:28;16.30;99.90
14527;DHT22;7350;51.208;4.238;2023-03-01T11:00:57;16.30;99.90
14527;DHT22;7350;51.208;4.238;2023-03-01T11:03:27;16.30;99.90
14527;DHT22;7350;51.208;4.238;2023-03-01T11:06:05;16.30;99.90
14527;DHT22;7350;51.208;4.238;2023-03-01T11:08:38;16.40;99.90
14527;DHT22;7350;51.208;4.238;2023-03-01T11:11:29;16.40;99.90
14527;DHT22;7350;51.208;4.238;2023-03-01T11:13:59;16.30;99.90
14527;DHT22;7350;51.208;4.238;2023-03-01T11:16:33;16.30;99.90
14527;DHT22;7350;51.208;4.238;2023-03-01T11:19:27;16.20;99.90
14527;DHT22;7350;51.208;4.238;2023-03-01T11:22:02;16.20;99.90
14527;DHT22;7350;51.208;4.238;2023-03-01T11:24:34;16.20;99.90
14527;DHT22;7350;51.208;4.238;2023-03-01T11:27:06;16.20;99.90
14527;DHT22;7350;51.208;4.238;2023-03-01T11:29:38;16.20;99.90
14527;DHT22;7350;51.208;4.238;2023-03-01T11:32:08;16.20;99.90
14527;DHT22;7350;51.208;4.238;2023-03-01T11:34:40;16.20;99.90
14527;DHT22;7350;51.208;4.238;2023-03-01T11:37:20;16.20;99.90
14527;DHT22;7350;51.208;4.238;2023-03-01T11:39:55;16.20;99.90
14527;DHT22;7350;51.208;4.238;2023-03-01T11:42:30;16.20;99.90
14527;DHT22;7350;51.208;4.238;2023-03-01T11:45:07;16.20;99.90
14527;DHT22;7350;51.208;4.238;2023-03-01T11:47:52;16.20;99.90
14527;DHT22;7350;51.208;4.238;2023-03-01T11:50:27;16.20;99.90
14527;DHT22;7350;51.208;4.238;2023-03-01T11:53:06;16.20;99.90
14527;DHT22;7350;51.208;4.238;2023-03-01T11:55:53;16.20;99.90
14527;DHT22;7350;51.208;4.238;2023-03-01T11:58:35;16.20;99.90
14527;DHT22;7350;51.208;4.238;2023-03-01T12:01:16;16.30;99.90
14527;DHT22;7350;51.208;4.238;2023-03-01T12:04:09;16.30;99.90
14527;DHT22;7350;51.208;4.238;2023-03-01T12:06:50;16.30;99.90
14527;DHT22;7350;51.208;4.238;2023-03-01T12:09:36;16.30;99.90
14527;DHT22;7350;51.208;4.238;2023-03-01T12:15:21;16.30;99.90
14527;DHT22;7350;51.208;4.238;2023-03-01T12:20:59;16.30;99.90
14527;DHT22;7350;51.208;4.238;2023-03-01T12:23:54;16.40;99.90
14527;DHT22;7350;51.208;4.238;2023-03-01T12:26:30;16.30;99.90
14527;DHT22;7350;51.208;4.238;2023-03-01T12:29:22;16.40;99.90
14527;DHT22;7350;51.208;4.238;2023-03-01T12:32:15;16.40;99.90
14527;DHT22;7350;51.208;4.238;2023-03-01T12:35:06;16.40;99.90
14527;DHT22;7350;51.208;4.238;2023-03-01T12:37:50;16.40;99.90
14527;DHT22;7350;51.208;4.238;2023-03-01T12:40:31;16.50;99.90
14527;DHT22;7350;51.208;4.238;2023-03-01T12:43:12;16.50;99.90
14527;DHT22;7350;51.208;4.238;2023-03-01T12:46:02;16.50;99.90
14527;DHT22;7350;51.208;4.238;2023-03-01T12:48:40;16.50;99.90
14527;DHT22;7350;51.208;4.238;2023-03-01T12:51:13;16.60;99.90
14527;DHT22;7350;51.208;4.238;2023-03-01T12:53:44;16.60;99.90
14527;DHT22;7350;51.208;4.238;2023-03-01T12:56:14;16.60;99.90
14527;DHT22;7350;51.208;4.238;2023-03-01T12:58:50;16.60;99.90
14527;DHT22;7350;51.208;4.238;2023-03-01T13:01:26;16.60;99.90
14527;DHT22;7350;51.208;4.238;2023-03-01T13:04:13;16.60;99.90
14527;DHT22;7350;51.208;4.238;2023-03-01T13:06:47;16.70;99.90
14527;DHT22;7350;51.208;4.238;2023-03-01T13:09:23;16.70;99.90
14527;DHT22;7350;51.208;4.238;2023-03-01T13:11:51;16.70;99.90
14527;DHT22;7350;51.208;4.238;2023-03-01T13:14:45;16.70;99.90
14527;DHT22;7350;51.208;4.238;2023-03-01T13:17:31;16.80;99.90
14527;DHT22;7350;51.208;4.238;2023-03-01T13:19:58;16.70;99.90
14527;DHT22;7350;51.208;4.238;2023-03-01T13:22:29;16.70;99.90
14527;DHT22;7350;51.208;4.238;2023-03-01T13:25:13;16.80;99.90
14527;DHT22;7350;51.208;4.238;2023-03-01T13:27:41;16.80;99.90
14527;DHT22;7350;51.208;4.238;2023-03-01T13:30:40;16.80;99.90
14527;DHT22;7350;51.208;4.238;2023-03-01T13:33:42;16.80;99.90
14527;DHT22;7350;51.208;4.238;2023-03-01T13:36:10;16.80;99.90
14527;DHT22;7350;51.208;4.238;2023-03-01T13:38:46;16.80;99.90
14527;DHT22;7350;51.208;4.238;2023-03-01T13:41:14;16.90;99.90
14527;DHT22;7350;51.208;4.238;2023-03-01T13:43:42;16.90;99.90
14527;DHT22;7350;51.208;4.238;2023-03-01T13:46:16;16.90;99.90
14527;DHT22;7350;51.208;4.238;2023-03-01T13:48:45;16.90;99.90
14527;DHT22;7350;51.208;4.238;2023-03-01T13:51:14;16.90;99.90
14527;DHT22;7350;51.208;4.238;2023-03-01T13:53:44;17.00;99.90
14527;DHT22;7350;51.208;4.238;2023-03-01T13:56:13;17.00;99.90
14527;DHT22;7350;51.208;4.238;2023-03-01T13:58:48;16.90;99.90
14527;DHT22;7350;51.208;4.238;2023-03-01T14:01:26;16.90;99.90
14527;DHT22;7350;51.208;4.238;2023-03-01T14:03:54;17.00;99.90
14527;DHT22;7350;51.208;4.238;2023-03-01T14:06:22;17.00;99.90
14527;DHT22;7350;51.208;4.238;2023-03-01T14:09:00;17.00;99.90
14527;DHT22;7350;51.208;4.238;2023-03-01T14:14:39;17.00;99.90
14527;DHT22;7350;51.208;4.238;2023-03-01T14:20:03;17.00;99.90
14527;DHT22;7350;51.208;4.238;2023-03-01T14:22:35;17.00;99.90
14527;DHT22;7350;51.208;4.238;2023-03-01T14:25:14;17.00;99.90
14527;DHT22;7350;51.208;4.238;2023-03-01T14:27:43;17.00;99.90
14527;DHT22;7350;51.208;4.238;2023-03-01T14:30:14;17.00;99.90
14527;DHT22;7350;51.208;4.238;2023-03-01T14:32:52;17.00;99.90
14527;DHT22;7350;51.208;4.238;2023-03-01T14:35:21;17.00;99.90
14527;DHT22;7350;51.208;4.238;2023-03-01T14:37:48;17.00;99.90
14527;DHT22;7350;51.208;4.238;2023-03-01T14:40:27;17.00;99.90
14527;DHT22;7350;51.208;4.238;2023-03-01T14:42:57;17.00;99.90
14527;DHT22;7350;51.208;4.238;2023-03-01T14:45:27;17.00;99.90
14527;DHT22;7350;51.208;4.238;2023-03-01T14:47:59;17.00;99.90
14527;DHT22;7350;51.208;4.238;2023-03-01T14:50:29;17.00;99.90
14527;DHT22;7350;51.208;4.238;2023-03-01T14:52:58;17.00;99.90
14527;DHT22;7350;51.208;4.238;2023-03-01T14:55:30;17.00;99.90
14527;DHT22;7350;51.208;4.238;2023-03-01T14:57:58;17.00;99.90
14527;DHT22;7350;51.208;4.238;2023-03-01T15:00:27;17.00;99.90
14527;DHT22;7350;51.208;4.238;2023-03-01T15:02:58;17.00;99.90
14527;DHT22;7350;51.208;4.238;2023-03-01T15:05:29;17.00;99.90
14527;DHT22;7350;51.208;4.238;2023-03-01T15:07:58;16.90;99.90
14527;DHT22;7350;51.208;4.238;2023-03-01T15:10:27;16.90;99.90
14527;DHT22;7350;51.208;4.238;2023-03-01T15:12:54;17.00;99.90
14527;DHT22;7350;51.208;4.238;2023-03-01T15:15:34;16.90;99.90
14527;DHT22;7350;51.208;4.238;2023-03-01T15:18:11;16.90;99.90
14527;DHT22;7350;51.208;4.238;2023-03-01T15:20:40;16.90;99.90
14527;DHT22;7350;51.208;4.238;2023-03-01T15:23:21;16.90;99.90
14527;DHT22;7350;51.208;4.238;2023-03-01T15:25:49;16.90;99.90
14527;DHT22;7350;51.208;4.238;2023-03-01T15:28:24;16.90;99.90
14527;DHT22;7350;51.208;4.238;2023-03-01T15:30:55;16.80;99.90
14527;DHT22;7350;51.208;4.238;2023-03-01T15:33:33;16.90;99.90
14527;DHT22;7350;51.208;4.238;2023-03-01T15:36:02;16.80;99.90
14527;DHT22;7350;51.208;4.238;2023-03-01T15:38:32;16.80;99.90
14527;DHT22;7350;51.208;4.238;2023-03-01T15:41:01;16.80;99.90
14527;DHT22;7350;51.208;4.238;2023-03-01T15:43:43;16.80;99.90
14527;DHT22;7350;51.208;4.238;2023-03-01T15:46:26;16.80;99.90
14527;DHT22;7350;51.208;4.238;2023-03-01T15:48:57;16.80;99.90
14527;DHT22;7350;51.208;4.238;2023-03-01T15:51:34;16.80;99.90
14527;DHT22;7350;51.208;4.238;2023-03-01T15:54:05;16.80;99.90
14527;DHT22;7350;51.208;4.238;2023-03-01T15:56:33;16.90;99.90
14527;DHT22;7350;51.208;4.238;2023-03-01T15:59:01;17.00;99.90
14527;DHT22;7350;51.208;4.238;2023-03-01T16:01:29;17.10;99.90
14527;DHT22;7350;51.208;4.238;2023-03-01T16:03:57;17.20;99.90
14527;DHT22;7350;51.208;4.238;2023-03-01T16:06:24;17.20;99.90
14527;DHT22;7350;51.208;4.238;2023-03-01T16:08:52;17.30;99.90
14527;DHT22;7350;51.208;4.238;2023-03-01T16:11:20;17.30;99.90
14527;DHT22;7350;51.208;4.238;2023-03-01T16:13:47;17.30;99.90
14527;DHT22;7350;51.208;4.238;2023-03-01T16:16:15;17.30;99.90
14527;DHT22;7350;51.208;4.238;2023-03-01T16:18:43;17.30;99.90